Time;durP1;ratioP1;P1;durP2;ratioP2;P2;SDS_P1;SDS_P2;PMS_P1;PMS_P2;Temp;Humidity;BMP_temperature;BMP_pressure;BME280_temperature;BME280_humidity;BME280_pressure;Samples;Min_cycle;Max_cycle;Signal;HPM_P1;HPM_P2
2023/06/23 00:00:28;;;;;;;14.93;9.63;;;19.20;99.90;;;;;;4989392;28;20042;-65
2023/06/23 00:02:54;;;;;;;15.30;10.23;;;19.20;99.90;;;;;;4991733;28;20055;-64
2023/06/23 00:05:20;;;;;;;12.95;9.15;;;19.20;99.90;;;;;;4988704;28;20113;-66
2023/06/23 00:07:46;;;;;;;12.38;9.43;;;19.20;99.90;;;;;;4978195;28;20097;-65
2023/06/23 00:10:12;;;;;;;12.45;9.15;;;19.20;99.90;;;;;;4975086;28;20042;-64
2023/06/23 00:12:42;;;;;;;13.45;9.50;;;19.20;99.90;;;;;;4988379;28;20034;-65
2023/06/23 00:15:10;;;;;;;12.68;9.13;;;19.20;99.90;;;;;;4974635;28;20042;-65
2023/06/23 00:17:36;;;;;;;11.48;8.85;;;19.20;99.90;;;;;;4973320;28;20438;-64
2023/06/23 00:20:08;;;;;;;12.45;8.93;;;19.20;99.90;;;;;;4974365;28;20054;-64
2023/06/23 00:22:33;;;;;;;12.38;8.48;;;19.20;99.90;;;;;;4982164;28;20061;-65
2023/06/23 00:24:59;;;;;;;12.48;7.15;;;19.20;99.90;;;;;;4968107;28;20138;-65
2023/06/23 00:27:25;;;;;;;10.43;7.30;;;19.20;99.90;;;;;;4971644;28;20487;-65
2023/06/23 00:29:51;;;;;;;9.60;7.65;;;19.20;99.90;;;;;;4991660;28;20050;-65
2023/06/23 00:32:17;;;;;;;10.52;6.80;;;19.20;99.90;;;;;;4973857;28;20054;-65
2023/06/23 00:34:42;;;;;;;13.32;7.15;;;19.20;99.90;;;;;;4973397;28;20065;-65
2023/06/23 00:37:09;;;;;;;11.32;7.03;;;19.20;99.90;;;;;;4973660;28;20047;-65
2023/06/23 00:39:35;;;;;;;8.43;6.88;;;19.20;99.90;;;;;;4960788;28;20039;-65
2023/06/23 00:42:06;;;;;;;11.77;6.63;;;19.20;99.90;;;;;;4985209;28;20475;-65
2023/06/23 00:44:33;;;;;;;10.73;6.05;;;19.20;99.90;;;;;;4986838;28;20046;-69
2023/06/23 00:47:01;;;;;;;9.48;6.55;;;19.10;99.90;;;;;;4973250;28;20468;-65
2023/06/23 00:49:26;;;;;;;14.30;6.03;;;19.10;99.90;;;;;;4958438;28;20054;-67
2023/06/23 00:51:53;;;;;;;10.60;5.65;;;19.10;99.90;;;;;;4955682;28;20042;-65
2023/06/23 00:54:20;;;;;;;11.10;6.40;;;19.20;99.90;;;;;;4956955;28;20053;-64
2023/06/23 00:56:47;;;;;;;7.57;5.07;;;19.10;99.90;;;;;;4986654;28;20081;-65
2023/06/23 00:59:13;;;;;;;9.32;5.88;;;19.10;99.90;;;;;;4961166;28;20042;-65
2023/06/23 01:01:39;;;;;;;11.23;6.13;;;19.10;99.90;;;;;;4956176;28;20216;-65
2023/06/23 01:04:04;;;;;;;8.02;5.30;;;19.10;99.90;;;;;;4972350;28;20392;-64
2023/06/23 01:06:42;;;;;;;10.82;5.55;;;19.10;99.90;;;;;;4956384;28;20054;-64
2023/06/23 01:09:49;;;;;;;10.45;5.50;;;19.10;99.90;;;;;;4975136;28;20054;-65
2023/06/23 01:12:26;;;;;;;9.70;5.32;;;19.10;99.90;;;;;;4941933;28;20062;-65
2023/06/23 01:15:05;;;;;;;9.73;5.63;;;19.10;99.90;;;;;;4989478;28;20085;-65
2023/06/23 01:17:33;;;;;;;8.50;5.05;;;19.10;99.90;;;;;;4974146;28;20832;-66
2023/06/23 01:20:21;;;;;;;7.68;4.80;;;19.10;99.90;;;;;;4973761;28;20152;-66
2023/06/23 01:23:06;;;;;;;15.88;6.05;;;19.10;99.90;;;;;;4972957;28;20554;-66
2023/06/23 01:25:57;;;;;;;;;;;19.00;99.90;;;;;;4989343;28;20490;-65
2023/06/23 01:28:32;;;;;;;9.73;4.68;;;19.00;99.90;;;;;;4963607;28;19968;-64
2023/06/23 01:31:02;;;;;;;11.75;5.05;;;18.90;99.90;;;;;;4973656;28;20125;-64
2023/06/23 01:33:37;;;;;;;10.40;4.75;;;18.90;99.90;;;;;;4972428;28;20049;-65
2023/06/23 01:36:11;;;;;;;10.32;5.47;;;18.90;99.90;;;;;;4968960;28;20131;-65
2023/06/23 01:38:43;;;;;;;9.88;5.03;;;18.90;99.90;;;;;;4985977;28;20042;-68
2023/06/23 01:41:18;;;;;;;8.48;4.90;;;18.80;99.90;;;;;;4994526;28;20125;-65
2023/06/23 01:43:48;;;;;;;7.63;4.90;;;18.80;99.90;;;;;;4993549;28;20046;-66
2023/06/23 01:46:25;;;;;;;8.75;5.47;;;18.80;99.90;;;;;;4959484;28;20058;-64
2023/06/23 01:48:56;;;;;;;11.18;5.15;;;18.80;99.90;;;;;;4977052;28;20046;-65
2023/06/23 01:51:25;;;;;;;7.90;5.00;;;18.70;99.90;;;;;;4977506;28;20046;-65
2023/06/23 01:53:51;;;;;;;10.13;5.13;;;18.70;99.90;;;;;;4964572;28;20047;-65
2023/06/23 01:56:18;;;;;;;9.45;4.85;;;18.70;99.90;;;;;;4942612;28;20045;-66
2023/06/23 01:58:46;;;;;;;7.70;4.32;;;18.70;99.90;;;;;;4976951;28;20097;-66
2023/06/23 02:01:12;;;;;;;11.23;4.97;;;18.70;99.90;;;;;;4994208;28;20561;-65
2023/06/23 02:03:39;;;;;;;9.48;5.10;;;18.80;99.90;;;;;;4993065;28;20101;-65
2023/06/23 02:06:07;;;;;;;9.88;4.85;;;18.80;99.90;;;;;;4992493;28;20057;-65
2023/06/23 02:08:34;;;;;;;8.25;4.85;;;18.80;99.90;;;;;;4994491;28;20058;-65
2023/06/23 02:11:01;;;;;;;8.38;5.43;;;18.80;99.90;;;;;;4993630;28;20050;-65
2023/06/23 02:13:29;;;;;;;9.90;5.13;;;18.80;99.90;;;;;;4991700;28;20050;-65
2023/06/23 02:15:56;;;;;;;12.25;5.60;;;18.80;99.90;;;;;;4986687;28;20068;-65
2023/06/23 02:18:23;;;;;;;7.93;5.07;;;18.80;99.90;;;;;;4974926;28;20398;-65
2023/06/23 02:20:51;;;;;;;10.95;5.22;;;18.80;99.90;;;;;;4959887;28;20246;-66
2023/06/23 02:23:19;;;;;;;9.32;5.13;;;18.80;99.90;;;;;;4994117;28;20042;-65
2023/06/23 02:25:45;;;;;;;8.57;4.72;;;18.80;99.90;;;;;;4936629;28;20054;-68
2023/06/23 02:28:12;;;;;;;7.15;4.53;;;18.80;99.90;;;;;;4975075;28;20052;-65
2023/06/23 02:30:43;;;;;;;8.40;4.60;;;18.70;99.90;;;;;;4976836;28;20113;-65
2023/06/23 02:33:08;;;;;;;7.65;4.72;;;18.80;99.90;;;;;;4992385;28;20128;-66
2023/06/23 02:35:34;;;;;;;11.95;5.20;;;18.80;99.90;;;;;;4992441;28;20042;-65
2023/06/23 02:38:03;;;;;;;7.20;4.20;;;18.70;99.90;;;;;;4974067;28;20408;-65
2023/06/23 02:40:33;;;;;;;11.65;4.47;;;18.80;99.90;;;;;;4975772;28;20498;-65
2023/06/23 02:43:12;;;;;;;8.35;4.30;;;18.80;99.90;;;;;;4960079;28;20058;-65
2023/06/23 02:45:42;;;;;;;6.75;4.53;;;18.80;99.90;;;;;;4971208;28;20459;-66
2023/06/23 02:48:14;;;;;;;8.63;4.82;;;18.80;99.90;;;;;;4975012;28;20089;-65
2023/06/23 02:50:41;;;;;;;8.35;4.68;;;18.80;99.90;;;;;;4975769;28;20054;-65
2023/06/23 02:53:16;;;;;;;10.05;4.95;;;18.70;99.90;;;;;;4975814;28;20073;-65
2023/06/23 02:55:46;;;;;;;10.45;4.78;;;18.80;99.90;;;;;;4992835;28;20096;-64
2023/06/23 02:58:15;;;;;;;10.15;4.72;;;18.70;99.90;;;;;;4992273;28;20050;-65
2023/06/23 03:00:42;;;;;;;6.60;4.60;;;18.70;99.90;;;;;;4975155;28;20050;-65
2023/06/23 03:03:13;;;;;;;9.40;4.82;;;18.70;99.90;;;;;;4975679;28;20050;-64
2023/06/23 03:05:38;;;;;;;8.13;5.07;;;18.60;99.90;;;;;;4986058;28;20053;-65
2023/06/23 03:08:05;;;;;;;8.38;5.10;;;18.70;99.90;;;;;;4992660;28;20049;-66
2023/06/23 03:10:32;;;;;;;6.00;4.53;;;18.60;99.90;;;;;;4975507;28;20046;-65
2023/06/23 03:13:00;;;;;;;8.38;4.90;;;18.60;99.90;;;;;;4974836;28;20054;-65
2023/06/23 03:15:26;;;;;;;9.73;5.03;;;18.60;99.90;;;;;;4987934;28;20057;-65
2023/06/23 03:17:58;;;;;;;8.60;5.68;;;18.60;99.90;;;;;;4974899;28;20082;-67
2023/06/23 03:20:35;;;;;;;7.15;4.68;;;18.60;99.90;;;;;;4987134;28;20043;-65
2023/06/23 03:23:10;;;;;;;12.52;5.25;;;18.60;99.90;;;;;;4987863;28;20415;-65
2023/06/23 03:25:37;;;;;;;8.02;4.40;;;18.60;99.90;;;;;;4991938;28;20046;-64
2023/06/23 03:28:06;;;;;;;9.75;5.00;;;18.60;99.90;;;;;;4947780;28;20042;-65
2023/06/23 03:30:43;;;;;;;9.70;5.30;;;18.60;99.90;;;;;;4957754;28;20046;-65
2023/06/23 03:33:14;;;;;;;10.00;5.05;;;18.60;99.90;;;;;;4974989;28;20046;-65
2023/06/23 03:35:44;;;;;;;9.48;5.07;;;18.50;99.90;;;;;;4971516;28;20059;-64
2023/06/23 03:38:14;;;;;;;9.88;5.10;;;18.50;99.90;;;;;;4966964;28;20055;-66
2023/06/23 03:40:54;;;;;;;10.02;5.43;;;18.50;99.90;;;;;;4961711;28;20521;-64
2023/06/23 03:43:48;;;;;;;8.93;5.53;;;18.40;99.90;;;;;;4969579;28;20046;-65
2023/06/23 03:46:20;;;;;;;10.05;5.63;;;18.40;99.90;;;;;;4989091;28;20157;-64
2023/06/23 03:48:47;;;;;;;8.48;5.18;;;18.40;99.90;;;;;;4984700;28;20057;-64
2023/06/23 03:51:14;;;;;;;9.30;5.00;;;18.30;99.90;;;;;;4971979;28;20125;-67
2023/06/23 03:53:41;;;;;;;9.80;4.85;;;18.30;99.90;;;;;;4987966;28;20039;-64
2023/06/23 03:56:11;;;;;;;7.88;5.18;;;18.20;99.90;;;;;;4986887;28;20404;-66
2023/06/23 03:58:38;;;;;;;8.90;5.30;;;18.20;99.90;;;;;;4972240;28;20042;-65
2023/06/23 04:01:06;;;;;;;6.97;4.72;;;18.20;99.90;;;;;;4974204;28;20093;-65
2023/06/23 04:03:33;;;;;;;7.40;5.00;;;18.20;99.90;;;;;;4969133;28;20050;-64
2023/06/23 04:06:03;;;;;;;10.00;5.90;;;18.20;99.90;;;;;;4991379;28;20054;-66
2023/06/23 04:08:31;;;;;;;9.25;5.72;;;18.10;99.90;;;;;;4980127;28;20450;-64
2023/06/23 04:10:59;;;;;;;7.03;5.70;;;18.10;99.90;;;;;;4974089;28;20487;-65
2023/06/23 04:13:28;;;;;;;9.70;6.15;;;18.10;99.90;;;;;;4970772;28;20042;-66
2023/06/23 04:15:56;;;;;;;9.15;5.68;;;18.10;99.90;;;;;;4971543;28;20046;-65
2023/06/23 04:18:24;;;;;;;8.82;5.45;;;18.10;99.90;;;;;;4990566;28;20130;-66
2023/06/23 04:20:52;;;;;;;7.07;5.70;;;18.10;99.90;;;;;;4971293;28;20074;-65
2023/06/23 04:23:19;;;;;;;9.95;5.90;;;18.10;99.90;;;;;;4989491;28;20034;-66
2023/06/23 04:25:48;;;;;;;9.65;5.82;;;18.10;99.90;;;;;;4974781;28;20185;-65
2023/06/23 04:28:18;;;;;;;9.60;6.10;;;18.10;99.90;;;;;;4990849;28;20047;-65
2023/06/23 04:30:44;;;;;;;9.65;5.72;;;18.10;99.90;;;;;;4989632;28;20104;-65
2023/06/23 04:33:10;;;;;;;11.93;6.30;;;18.20;99.90;;;;;;4957812;28;20049;-66
2023/06/23 04:35:37;;;;;;;6.68;5.68;;;18.20;99.90;;;;;;4957920;28;20064;-65
2023/06/23 04:38:08;;;;;;;9.85;6.20;;;18.20;99.90;;;;;;4974023;28;20514;-66
2023/06/23 04:40:51;;;;;;;9.25;6.25;;;18.20;99.90;;;;;;4972082;28;20046;-65
2023/06/23 04:43:36;;;;;;;10.07;6.32;;;18.30;99.90;;;;;;4962992;28;20077;-65
2023/06/23 04:46:15;;;;;;;11.10;6.45;;;18.30;99.90;;;;;;4987878;28;20066;-66
2023/06/23 04:48:47;;;;;;;13.43;6.85;;;18.30;99.90;;;;;;4991550;28;20042;-65
2023/06/23 04:51:15;;;;;;;11.35;6.55;;;18.30;99.90;;;;;;4969605;28;20043;-66
2023/06/23 04:53:48;;;;;;;10.02;6.60;;;18.30;99.90;;;;;;4974596;28;20216;-66
2023/06/23 04:56:19;;;;;;;8.68;6.03;;;18.30;99.90;;;;;;4972460;28;20129;-66
2023/06/23 04:58:52;;;;;;;9.30;7.03;;;18.30;99.90;;;;;;4991586;28;20376;-66
2023/06/23 05:01:20;;;;;;;11.35;7.25;;;18.30;99.90;;;;;;4973114;28;20050;-66
2023/06/23 05:03:48;;;;;;;11.43;6.82;;;18.30;99.90;;;;;;4965082;28;20073;-66
2023/06/23 05:06:17;;;;;;;13.93;6.75;;;18.40;99.90;;;;;;4982701;28;20125;-65
2023/06/23 05:08:47;;;;;;;9.52;6.20;;;18.40;99.90;;;;;;4991427;28;20043;-64
2023/06/23 05:11:14;;;;;;;11.40;6.50;;;18.50;99.90;;;;;;4973575;28;20407;-64
2023/06/23 05:13:41;;;;;;;10.38;6.40;;;18.60;99.90;;;;;;4986354;28;20042;-65
2023/06/23 05:16:10;;;;;;;11.13;6.25;;;18.70;99.90;;;;;;4991302;28;20038;-68
2023/06/23 05:18:38;;;;;;;9.32;6.05;;;18.70;99.90;;;;;;4961485;28;20042;-65
2023/06/23 05:21:05;;;;;;;13.93;7.20;;;18.80;99.90;;;;;;4994713;28;20415;-65
2023/06/23 05:23:40;;;;;;;9.93;6.68;;;18.80;99.90;;;;;;4994288;28;20503;-66
2023/06/23 05:26:07;;;;;;;11.27;7.13;;;18.80;99.90;;;;;;4994689;28;20053;-65
2023/06/23 05:28:36;;;;;;;9.25;7.47;;;18.80;99.90;;;;;;4974507;28;20047;-65
2023/06/23 05:31:04;;;;;;;9.32;7.18;;;18.80;99.90;;;;;;4987347;28;20054;-65
2023/06/23 05:33:33;;;;;;;10.93;6.90;;;18.80;99.90;;;;;;4958173;28;20669;-68
2023/06/23 05:36:01;;;;;;;10.13;7.28;;;18.90;99.90;;;;;;4994007;28;20138;-65
2023/06/23 05:38:29;;;;;;;10.68;6.68;;;18.80;99.90;;;;;;4958822;28;20047;-64
2023/06/23 05:40:55;;;;;;;8.65;6.70;;;18.80;99.90;;;;;;4976230;28;20451;-64
2023/06/23 05:43:20;;;;;;;12.52;7.43;;;18.80;99.90;;;;;;4973663;28;20125;-64
2023/06/23 05:45:47;;;;;;;11.75;6.70;;;18.80;99.90;;;;;;4994024;28;20138;-64
2023/06/23 05:48:16;;;;;;;13.57;7.43;;;18.80;99.90;;;;;;4977126;28;20499;-67
2023/06/23 05:50:45;;;;;;;10.00;6.65;;;18.80;99.90;;;;;;4990616;28;20078;-64
2023/06/23 05:53:15;;;;;;;9.05;6.72;;;18.80;99.90;;;;;;4974722;28;20109;-67
2023/06/23 05:55:47;;;;;;;11.55;7.03;;;18.80;99.90;;;;;;4960848;28;20089;-64
2023/06/23 05:58:15;;;;;;;12.27;7.75;;;18.80;99.90;;;;;;4993767;28;20054;-66
2023/06/23 06:00:46;;;;;;;12.18;7.35;;;18.90;99.90;;;;;;4988228;28;20062;-64
2023/06/23 06:03:14;;;;;;;10.82;6.90;;;19.10;99.90;;;;;;4980944;28;20117;-67
2023/06/23 06:05:45;;;;;;;10.57;7.18;;;19.50;99.90;;;;;;4994493;28;20108;-64
2023/06/23 06:08:12;;;;;;;11.20;7.03;;;19.90;99.90;;;;;;4987014;28;20050;-64
2023/06/23 06:10:39;;;;;;;11.45;6.75;;;20.30;99.90;;;;;;4976577;28;20061;-64
2023/06/23 06:13:06;;;;;;;7.70;6.22;;;20.90;99.90;;;;;;4976304;28;20450;-65
2023/06/23 06:15:33;;;;;;;10.32;6.55;;;21.70;99.90;;;;;;4994024;28;20085;-64
2023/06/23 06:18:04;;;;;;;10.80;6.43;;;22.70;99.90;;;;;;4987063;28;20062;-65
2023/06/23 06:20:32;;;;;;;9.43;5.90;;;23.70;99.90;;;;;;4993556;28;20046;-65
2023/06/23 06:22:59;;;;;;;10.38;6.40;;;24.60;99.90;;;;;;4975857;28;20087;-65
2023/06/23 06:25:26;;;;;;;8.80;5.97;;;25.20;99.90;;;;;;4993142;28;20046;-64
2023/06/23 06:27:53;;;;;;;7.82;5.30;;;25.80;99.90;;;;;;4993099;28;20046;-65
2023/06/23 06:30:21;;;;;;;8.23;5.88;;;25.80;99.90;;;;;;4990428;28;20052;-66
2023/06/23 06:32:49;;;;;;;8.93;5.50;;;26.30;99.90;;;;;;4991431;28;20254;-65
2023/06/23 06:35:17;;;;;;;8.77;5.55;;;26.60;99.90;;;;;;4992987;28;20065;-63
2023/06/23 06:37:47;;;;;;;9.43;5.05;;;26.60;99.90;;;;;;4988341;28;20055;-63
2023/06/23 06:40:15;;;;;;;10.40;5.53;;;26.80;99.90;;;;;;4991659;28;20042;-64
2023/06/23 06:42:41;;;;;;;7.82;4.82;;;26.60;99.80;;;;;;4974776;28;20050;-64
2023/06/23 06:45:08;;;;;;;7.32;4.65;;;26.50;99.90;;;;;;4987309;28;20065;-64
2023/06/23 06:47:43;;;;;;;6.10;4.63;;;26.50;99.90;;;;;;4992353;28;20050;-63
2023/06/23 06:50:11;;;;;;;5.88;4.30;;;27.00;99.00;;;;;;4968364;28;20046;-64
2023/06/23 06:52:39;;;;;;;6.13;4.22;;;27.60;98.40;;;;;;4964556;28;20484;-64
2023/06/23 06:55:05;;;;;;;6.40;4.43;;;27.90;97.50;;;;;;4990695;28;20352;-64
2023/06/23 06:57:33;;;;;;;5.82;4.03;;;28.10;96.00;;;;;;4992103;28;20056;-64
2023/06/23 06:59:58;;;;;;;7.40;3.80;;;28.50;96.10;;;;;;4992073;28;20050;-64
2023/06/23 07:02:24;;;;;;;5.63;3.55;;;28.80;95.90;;;;;;4992432;28;20559;-64
2023/06/23 07:04:50;;;;;;;6.47;3.60;;;28.90;94.90;;;;;;4991885;28;20097;-63
2023/06/23 07:07:16;;;;;;;6.15;3.67;;;29.50;95.20;;;;;;4975878;28;20050;-63
2023/06/23 07:09:42;;;;;;;6.80;3.58;;;29.50;94.60;;;;;;4992312;28;20050;-63
2023/06/23 07:12:08;;;;;;;5.07;3.47;;;29.70;94.20;;;;;;4974970;28;20502;-63
2023/06/23 07:14:35;;;;;;;7.65;4.03;;;29.70;93.60;;;;;;4990635;28;20073;-63
2023/06/23 07:17:01;;;;;;;5.78;3.00;;;29.80;93.60;;;;;;4986247;28;20077;-63
2023/06/23 07:19:26;;;;;;;4.57;3.22;;;29.70;93.00;;;;;;4989294;28;20495;-65
2023/06/23 07:21:52;;;;;;;7.75;2.83;;;29.90;93.10;;;;;;4971840;28;20188;-63
2023/06/23 07:24:18;;;;;;;5.28;3.15;;;30.10;92.70;;;;;;4992806;28;20035;-63
2023/06/23 07:26:44;;;;;;;5.72;2.85;;;30.30;92.60;;;;;;4991013;28;20053;-64
2023/06/23 07:29:09;;;;;;;5.47;3.30;;;30.60;91.90;;;;;;4992335;28;20589;-63
2023/06/23 07:31:37;;;;;;;4.20;2.67;;;30.60;91.90;;;;;;4962751;28;20048;-64
2023/06/23 07:34:03;;;;;;;8.02;3.10;;;30.80;91.70;;;;;;4975454;28;20042;-63
2023/06/23 07:36:29;;;;;;;3.15;2.65;;;31.00;91.60;;;;;;4968180;28;20133;-64
2023/06/23 07:38:55;;;;;;;5.00;2.65;;;31.20;91.10;;;;;;4989818;28;20120;-63
2023/06/23 07:41:20;;;;;;;3.78;2.67;;;31.30;90.70;;;;;;5000417;28;20155;-64
2023/06/23 07:43:46;;;;;;;4.45;2.67;;;31.40;90.00;;;;;;4971375;28;20057;-64
2023/06/23 07:46:12;;;;;;;3.75;2.60;;;31.70;90.20;;;;;;4971783;28;20495;-66
2023/06/23 07:48:38;;;;;;;3.97;2.60;;;31.60;89.60;;;;;;4991737;28;20042;-64
2023/06/23 07:51:04;;;;;;;3.55;2.38;;;31.90;87.90;;;;;;4967797;28;20050;-64
2023/06/23 07:53:29;;;;;;;4.75;2.90;;;31.90;88.20;;;;;;4982594;28;20107;-66
2023/06/23 07:55:55;;;;;;;7.93;2.80;;;31.80;88.20;;;;;;4990252;28;20042;-64
2023/06/23 07:58:20;;;;;;;4.03;2.60;;;31.40;86.70;;;;;;4973825;28;20495;-64
2023/06/23 08:00:46;;;;;;;4.07;2.78;;;31.40;87.50;;;;;;4974594;28;20129;-64
2023/06/23 08:03:12;;;;;;;3.92;2.60;;;31.40;88.10;;;;;;4959527;28;20487;-63
2023/06/23 08:05:38;;;;;;;5.68;2.67;;;31.50;87.70;;;;;;4990364;28;20519;-64
2023/06/23 08:08:05;;;;;;;5.68;2.72;;;31.80;88.60;;;;;;4973174;28;20074;-63
2023/06/23 08:10:30;;;;;;;3.63;2.33;;;32.30;88.30;;;;;;4969818;28;20058;-66
2023/06/23 08:12:56;;;;;;;4.15;2.80;;;32.40;87.00;;;;;;4987703;28;20046;-65
2023/06/23 08:15:22;;;;;;;4.82;2.58;;;32.60;87.00;;;;;;4967990;28;20480;-64
2023/06/23 08:17:48;;;;;;;4.93;2.60;;;32.50;87.30;;;;;;4972181;28;20129;-64
2023/06/23 08:20:14;;;;;;;3.47;2.13;;;32.40;87.60;;;;;;4991927;28;20046;-63
2023/06/23 08:22:40;;;;;;;5.38;2.90;;;32.50;84.00;;;;;;4990953;28;20046;-64
2023/06/23 08:25:07;;;;;;;4.57;2.38;;;32.70;84.50;;;;;;4990202;28;20042;-65
2023/06/23 08:27:33;;;;;;;3.83;2.72;;;32.70;85.20;;;;;;4973656;28;20046;-68
2023/06/23 08:29:59;;;;;;;3.42;2.50;;;32.70;84.20;;;;;;4973162;28;20050;-65
2023/06/23 08:32:25;;;;;;;3.50;2.63;;;32.40;85.40;;;;;;4972829;28;20123;-66
2023/06/23 08:34:50;;;;;;;4.40;2.60;;;32.20;86.90;;;;;;4974076;28;20098;-65
2023/06/23 08:37:16;;;;;;;4.82;3.08;;;32.20;87.00;;;;;;4991805;28;20049;-65
2023/06/23 08:39:42;;;;;;;6.55;3.03;;;32.40;87.10;;;;;;4989959;28;20047;-65
2023/06/23 08:42:08;;;;;;;5.82;2.75;;;32.50;87.30;;;;;;4991590;28;20041;-65
2023/06/23 08:44:36;;;;;;;5.90;3.13;;;32.60;88.20;;;;;;4990459;28;20038;-65
2023/06/23 08:47:04;;;;;;;4.50;3.00;;;32.50;87.80;;;;;;4986859;28;20046;-65
2023/06/23 08:49:37;;;;;;;6.13;3.33;;;32.50;88.40;;;;;;4992126;28;20388;-68
2023/06/23 08:52:04;;;;;;;5.30;2.55;;;32.60;88.30;;;;;;4990358;28;20104;-66
2023/06/23 08:54:30;;;;;;;5.15;2.70;;;32.40;88.30;;;;;;4977242;28;20042;-66
2023/06/23 08:56:56;;;;;;;6.22;3.25;;;32.40;89.00;;;;;;4995038;28;20042;-69
2023/06/23 08:59:22;;;;;;;5.53;3.10;;;32.40;88.10;;;;;;4977953;28;20462;-66
2023/06/23 09:01:47;;;;;;;5.00;2.97;;;32.30;86.80;;;;;;4990773;28;20046;-66
2023/06/23 09:04:14;;;;;;;4.47;2.60;;;32.20;87.60;;;;;;4962113;28;20122;-66
2023/06/23 09:06:40;;;;;;;5.03;2.60;;;32.20;87.40;;;;;;4977473;28;20125;-69
2023/06/23 09:09:06;;;;;;;5.32;3.15;;;32.80;86.50;;;;;;4995507;28;20118;-65
2023/06/23 09:11:32;;;;;;;3.90;2.30;;;32.90;85.80;;;;;;4991429;28;20411;-66
2023/06/23 09:14:00;;;;;;;9.50;2.80;;;32.90;86.20;;;;;;4986477;28;20462;-67
2023/06/23 09:16:27;;;;;;;3.85;2.70;;;33.20;85.80;;;;;;4977294;28;20133;-65
2023/06/23 09:18:53;;;;;;;5.93;3.13;;;33.30;85.90;;;;;;4994849;28;20381;-65
2023/06/23 09:21:20;;;;;;;6.55;2.63;;;33.40;86.00;;;;;;4994227;28;20049;-65
2023/06/23 09:23:58;;;;;;;4.78;2.65;;;33.50;85.00;;;;;;4993339;28;20046;-65
2023/06/23 09:26:25;;;;;;;4.85;2.90;;;33.40;84.60;;;;;;4969955;28;20050;-65
2023/06/23 09:28:50;;;;;;;5.68;2.85;;;33.30;85.10;;;;;;4977501;28;20447;-64
2023/06/23 09:31:17;;;;;;;5.93;3.00;;;33.20;84.10;;;;;;4994748;28;20042;-65
2023/06/23 09:33:53;;;;;;;4.57;2.50;;;33.30;83.90;;;;;;4993997;28;20158;-68
2023/06/23 09:36:19;;;;;;;3.72;2.40;;;33.40;83.70;;;;;;4989092;28;20054;-64
2023/06/23 09:38:46;;;;;;;3.90;2.90;;;32.90;83.20;;;;;;4975230;28;20101;-68
2023/06/23 09:41:14;;;;;;;4.30;2.60;;;32.70;83.80;;;;;;4994938;28;20046;-64
2023/06/23 09:43:50;;;;;;;4.97;2.58;;;32.70;84.50;;;;;;4949364;28;20491;-65
2023/06/23 09:46:19;;;;;;;4.68;2.35;;;32.50;83.50;;;;;;4985313;28;20050;-65
2023/06/23 09:48:47;;;;;;;4.88;2.60;;;32.10;84.10;;;;;;4985446;28;20085;-69
2023/06/23 09:51:13;;;;;;;4.72;2.38;;;32.20;83.50;;;;;;4990345;28;20039;-64
2023/06/23 09:53:41;;;;;;;3.53;2.13;;;32.70;83.20;;;;;;4993380;28;20116;-64
2023/06/23 09:56:12;;;;;;;3.72;2.20;;;32.90;83.00;;;;;;4992959;28;20867;-66
2023/06/23 09:58:40;;;;;;;7.03;2.20;;;32.70;83.10;;;;;;4978790;28;20092;-64
2023/06/23 10:01:13;;;;;;;3.60;2.30;;;33.00;81.30;;;;;;4991411;28;20118;-64
2023/06/23 10:03:50;;;;;;;3.17;1.80;;;33.20;81.70;;;;;;4992842;28;20085;-65
2023/06/23 10:06:32;;;;;;;2.95;2.15;;;33.20;80.00;;;;;;4976737;28;20052;-64
2023/06/23 10:09:05;;;;;;;3.15;2.08;;;33.40;79.00;;;;;;4993903;28;20141;-64
2023/06/23 10:11:39;;;;;;;4.05;2.40;;;33.10;79.90;;;;;;4993985;28;20491;-65
2023/06/23 10:14:11;;;;;;;4.60;2.72;;;32.90;81.70;;;;;;4974157;28;20061;-65
2023/06/23 10:16:43;;;;;;;7.70;2.40;;;32.50;83.10;;;;;;4976681;28;20130;-65
2023/06/23 10:19:09;;;;;;;6.00;2.40;;;32.30;82.80;;;;;;4989874;28;20042;-64
2023/06/23 10:21:36;;;;;;;3.53;2.58;;;31.90;82.70;;;;;;4971359;28;20046;-69
2023/06/23 10:24:08;;;;;;;5.28;2.75;;;31.10;83.40;;;;;;4985325;28;20038;-65
2023/06/23 10:26:37;;;;;;;4.45;3.05;;;30.80;85.50;;;;;;4993763;28;20050;-64
2023/06/23 10:29:19;;;;;;;4.30;3.17;;;30.50;86.90;;;;;;4975334;28;20077;-64
2023/06/23 10:31:46;;;;;;;4.75;3.05;;;30.50;86.60;;;;;;4992150;28;20190;-66
2023/06/23 10:34:13;;;;;;;5.00;3.03;;;30.40;88.00;;;;;;4974658;28;20042;-66
2023/06/23 10:36:41;;;;;;;5.55;3.17;;;29.90;86.50;;;;;;4991925;28;20050;-64
2023/06/23 10:39:10;;;;;;;4.38;2.60;;;29.70;87.10;;;;;;4970834;28;20065;-64
2023/06/23 10:41:37;;;;;;;4.68;2.95;;;29.50;87.40;;;;;;4987649;28;20452;-64
2023/06/23 10:44:04;;;;;;;5.57;3.47;;;29.60;87.40;;;;;;4992140;28;20042;-63
2023/06/23 10:46:31;;;;;;;7.30;3.67;;;29.90;87.10;;;;;;4992822;28;20108;-63
2023/06/23 10:48:57;;;;;;;6.07;3.30;;;30.10;87.60;;;;;;4991967;28;20054;-65
2023/06/23 10:51:24;;;;;;;4.88;2.92;;;30.20;87.70;;;;;;4985174;28;20052;-65
2023/06/23 10:54:01;;;;;;;5.38;3.90;;;30.30;88.10;;;;;;4991510;28;20436;-63
2023/06/23 10:56:31;;;;;;;4.88;3.20;;;30.10;88.60;;;;;;4993501;28;20046;-63
2023/06/23 10:58:57;;;;;;;8.52;3.90;;;29.70;88.90;;;;;;4994955;28;20133;-64
2023/06/23 11:01:22;;;;;;;7.18;3.60;;;29.40;89.30;;;;;;4971984;28;20133;-65
2023/06/23 11:03:56;;;;;;;5.18;4.30;;;29.10;90.00;;;;;;4956230;28;20055;-64
2023/06/23 11:06:35;;;;;;;7.65;4.47;;;28.80;90.60;;;;;;4972620;28;20057;-68
2023/06/23 11:09:01;;;;;;;5.53;4.45;;;28.50;91.40;;;;;;4989998;28;20050;-66
2023/06/23 11:11:34;;;;;;;5.05;4.13;;;28.60;91.50;;;;;;4994946;28;20042;-65
2023/06/23 11:14:00;;;;;;;7.00;4.30;;;28.90;91.40;;;;;;4975391;28;20419;-67
2023/06/23 11:16:31;;;;;;;6.43;5.22;;;29.10;91.20;;;;;;4975388;28;20125;-66
2023/06/23 11:18:58;;;;;;;6.28;4.75;;;28.90;91.50;;;;;;4955254;28;20046;-71
2023/06/23 11:21:27;;;;;;;9.32;5.55;;;28.70;91.50;;;;;;4969520;28;20042;-65
2023/06/23 11:24:10;;;;;;;8.73;5.13;;;28.30;92.00;;;;;;4993009;28;20046;-65
2023/06/23 11:26:37;;;;;;;9.38;4.93;;;28.00;92.80;;;;;;4992058;28;20054;-66
2023/06/23 11:29:09;;;;;;;11.50;5.43;;;28.00;92.70;;;;;;4982852;28;20062;-66
2023/06/23 11:31:35;;;;;;;7.20;5.35;;;28.20;92.50;;;;;;4974747;28;20129;-66
2023/06/23 11:34:02;;;;;;;8.55;5.53;;;28.10;92.70;;;;;;4987161;28;20121;-70
2023/06/23 11:36:30;;;;;;;7.82;5.15;;;28.20;92.10;;;;;;4958841;28;20570;-65
2023/06/23 11:38:57;;;;;;;9.13;5.60;;;28.10;92.70;;;;;;4989202;28;20435;-65
2023/06/23 11:41:32;;;;;;;6.50;4.57;;;28.20;92.30;;;;;;4952971;28;20395;-65
2023/06/23 11:44:00;;;;;;;7.95;5.20;;;28.20;92.00;;;;;;4972401;28;20045;-65
2023/06/23 11:46:26;;;;;;;8.20;5.43;;;28.20;92.20;;;;;;4986279;28;20484;-65
2023/06/23 11:48:53;;;;;;;8.15;5.70;;;28.00;92.00;;;;;;4956202;28;20487;-65
2023/06/23 11:51:21;;;;;;;6.97;5.55;;;28.00;91.80;;;;;;4974826;28;20061;-65
2023/06/23 11:53:49;;;;;;;8.98;5.03;;;27.70;92.50;;;;;;4972637;28;20049;-66
2023/06/23 11:56:17;;;;;;;7.35;5.68;;;27.80;92.00;;;;;;4991255;28;20054;-65
2023/06/23 11:58:52;;;;;;;7.00;5.35;;;28.00;92.00;;;;;;4968637;28;20121;-65
2023/06/23 12:01:18;;;;;;;7.22;5.00;;;28.00;91.50;;;;;;4991437;28;20042;-65
2023/06/23 12:03:52;;;;;;;6.00;4.25;;;28.00;91.60;;;;;;4972938;28;20054;-65
2023/06/23 12:06:19;;;;;;;6.03;4.30;;;28.10;91.10;;;;;;4973683;28;20675;-65
2023/06/23 12:08:52;;;;;;;6.70;4.57;;;28.10;90.90;;;;;;4985754;28;20052;-65
2023/06/23 12:11:19;;;;;;;5.03;3.80;;;28.10;90.50;;;;;;4972953;28;20051;-64
2023/06/23 12:13:48;;;;;;;5.93;4.10;;;28.10;90.50;;;;;;4974443;28;20065;-65
2023/06/23 12:16:14;;;;;;;8.75;4.18;;;28.00;90.60;;;;;;4991285;28;20050;-65
2023/06/23 12:18:48;;;;;;;6.38;3.90;;;27.90;90.50;;;;;;4974976;28;20485;-66
2023/06/23 12:21:16;;;;;;;6.32;3.40;;;27.90;90.00;;;;;;4988308;28;20050;-65
2023/06/23 12:23:46;;;;;;;6.85;3.75;;;27.90;88.20;;;;;;4990309;28;20049;-65
2023/06/23 12:26:13;;;;;;;4.32;2.95;;;27.80;89.60;;;;;;4971243;28;20054;-64
2023/06/23 12:28:39;;;;;;;5.13;3.42;;;27.80;85.30;;;;;;4991369;28;20057;-65
2023/06/23 12:31:06;;;;;;;6.53;3.03;;;27.80;85.70;;;;;;4981210;28;20381;-70
2023/06/23 12:33:35;;;;;;;9.68;3.35;;;27.80;86.40;;;;;;4973907;28;20066;-66
2023/06/23 12:36:04;;;;;;;4.55;3.00;;;27.90;85.40;;;;;;4973507;28;20129;-65
2023/06/23 12:38:35;;;;;;;5.78;2.95;;;27.40;85.60;;;;;;4989286;28;20133;-65
2023/06/23 12:41:20;;;;;;;6.13;3.28;;;27.40;87.60;;;;;;4970669;28;20407;-64
2023/06/23 12:43:47;;;;;;;4.78;2.75;;;27.20;86.60;;;;;;4984828;28;20130;-65
2023/06/23 12:46:15;;;;;;;5.22;3.05;;;27.10;86.00;;;;;;4968512;28;20451;-65
2023/06/23 12:48:47;;;;;;;7.25;3.30;;;26.80;84.00;;;;;;4991881;28;20054;-65
2023/06/23 12:51:13;;;;;;;5.07;2.83;;;26.90;85.50;;;;;;4966213;28;20046;-65
2023/06/23 12:53:40;;;;;;;4.28;2.80;;;26.60;84.90;;;;;;4967161;28;20046;-65